sensor_id;sensor_type;location;lat;lon;timestamp;temperature;humidity
55173;DHT22;41061;52.822;6.860;2022-07-15T00:01:54;12.60;99.90
55173;DHT22;41061;52.822;6.860;2022-07-15T00:04:20;12.60;99.90
55173;DHT22;41061;52.822;6.860;2022-07-15T00:06:45;12.50;99.90
55173;DHT22;41061;52.822;6.860;2022-07-15T00:09:11;12.40;99.90
55173;DHT22;41061;52.822;6.860;2022-07-15T00:11:37;12.40;99.90
55173;DHT22;41061;52.822;6.860;2022-07-15T00:14:02;12.30;99.90
55173;DHT22;41061;52.822;6.860;2022-07-15T00:16:28;12.30;99.90
55173;DHT22;41061;52.822;6.860;2022-07-15T00:18:54;12.20;99.90
55173;DHT22;41061;52.822;6.860;2022-07-15T00:21:19;12.20;99.90
55173;DHT22;41061;52.822;6.860;2022-07-15T00:23:45;12.20;99.90
55173;DHT22;41061;52.822;6.860;2022-07-15T00:26:11;12.20;99.90
55173;DHT22;41061;52.822;6.860;2022-07-15T00:28:36;12.20;99.90
55173;DHT22;41061;52.822;6.860;2022-07-15T00:31:02;12.20;99.90
55173;DHT22;41061;52.822;6.860;2022-07-15T00:33:28;12.10;99.90
55173;DHT22;41061;52.822;6.860;2022-07-15T00:35:53;12.10;99.90
55173;DHT22;41061;52.822;6.860;2022-07-15T00:38:19;12.10;99.90
55173;DHT22;41061;52.822;6.860;2022-07-15T00:40:47;12.10;99.90
55173;DHT22;41061;52.822;6.860;2022-07-15T00:43:13;12.10;99.90
55173;DHT22;41061;52.822;6.860;2022-07-15T00:45:42;12.20;99.90
55173;DHT22;41061;52.822;6.860;2022-07-15T00:48:08;12.20;99.90
55173;DHT22;41061;52.822;6.860;2022-07-15T00:50:34;12.20;99.90
55173;DHT22;41061;52.822;6.860;2022-07-15T00:53:12;12.30;99.90
55173;DHT22;41061;52.822;6.860;2022-07-15T00:55:42;12.30;99.90
55173;DHT22;41061;52.822;6.860;2022-07-15T00:58:13;12.30;99.90
55173;DHT22;41061;52.822;6.860;2022-07-15T01:00:42;12.40;99.90
55173;DHT22;41061;52.822;6.860;2022-07-15T01:03:09;12.40;99.90
55173;DHT22;41061;52.822;6.860;2022-07-15T01:05:34;12.50;99.90
55173;DHT22;41061;52.822;6.860;2022-07-15T01:08:01;12.50;99.90
55173;DHT22;41061;52.822;6.860;2022-07-15T01:10:27;12.50;99.90
55173;DHT22;41061;52.822;6.860;2022-07-15T01:12:53;12.50;99.90
55173;DHT22;41061;52.822;6.860;2022-07-15T01:15:19;12.50;99.90
55173;DHT22;41061;52.822;6.860;2022-07-15T01:17:45;12.60;99.90
55173;DHT22;41061;52.822;6.860;2022-07-15T01:20:12;12.50;99.90
55173;DHT22;41061;52.822;6.860;2022-07-15T01:22:39;12.60;99.90
55173;DHT22;41061;52.822;6.860;2022-07-15T01:25:06;12.60;99.90
55173;DHT22;41061;52.822;6.860;2022-07-15T01:27:32;12.70;99.90
55173;DHT22;41061;52.822;6.860;2022-07-15T01:29:59;12.70;99.90
55173;DHT22;41061;52.822;6.860;2022-07-15T01:32:25;12.70;99.90
55173;DHT22;41061;52.822;6.860;2022-07-15T01:34:51;12.80;99.90
55173;DHT22;41061;52.822;6.860;2022-07-15T01:37:18;12.80;99.90
55173;DHT22;41061;52.822;6.860;2022-07-15T01:39:44;12.80;99.90
55173;DHT22;41061;52.822;6.860;2022-07-15T01:42:09;12.80;99.90
55173;DHT22;41061;52.822;6.860;2022-07-15T01:44:35;12.80;99.90
55173;DHT22;41061;52.822;6.860;2022-07-15T01:47:01;12.90;99.90
55173;DHT22;41061;52.822;6.860;2022-07-15T01:49:27;12.90;99.90
55173;DHT22;41061;52.822;6.860;2022-07-15T01:51:58;13.00;99.90
55173;DHT22;41061;52.822;6.860;2022-07-15T01:54:26;13.00;99.90
55173;DHT22;41061;52.822;6.860;2022-07-15T01:56:53;13.10;99.90
55173;DHT22;41061;52.822;6.860;2022-07-15T01:59:20;13.10;99.90
55173;DHT22;41061;52.822;6.860;2022-07-15T02:01:51;13.10;99.90
55173;DHT22;41061;52.822;6.860;2022-07-15T02:04:18;13.10;99.90
55173;DHT22;41061;52.822;6.860;2022-07-15T02:06:44;13.10;99.90
55173;DHT22;41061;52.822;6.860;2022-07-15T02:09:11;13.20;99.90
55173;DHT22;41061;52.822;6.860;2022-07-15T02:11:37;13.20;99.90
55173;DHT22;41061;52.822;6.860;2022-07-15T02:14:03;13.20;99.90
55173;DHT22;41061;52.822;6.860;2022-07-15T02:16:29;13.10;99.90
55173;DHT22;41061;52.822;6.860;2022-07-15T02:18:56;13.10;99.90
55173;DHT22;41061;52.822;6.860;2022-07-15T02:21:22;13.10;99.90
55173;DHT22;41061;52.822;6.860;2022-07-15T02:23:48;13.10;99.90
55173;DHT22;41061;52.822;6.860;2022-07-15T02:26:14;13.10;99.90
55173;DHT22;41061;52.822;6.860;2022-07-15T02:28:40;13.10;99.90
55173;DHT22;41061;52.822;6.860;2022-07-15T02:31:06;13.10;99.90
55173;DHT22;41061;52.822;6.860;2022-07-15T02:33:32;13.10;99.90
55173;DHT22;41061;52.822;6.860;2022-07-15T02:35:57;13.10;99.90
55173;DHT22;41061;52.822;6.860;2022-07-15T02:38:23;13.00;99.90
55173;DHT22;41061;52.822;6.860;2022-07-15T02:40:49;13.00;99.90
55173;DHT22;41061;52.822;6.860;2022-07-15T02:43:15;13.00;99.90
55173;DHT22;41061;52.822;6.860;2022-07-15T02:45:41;12.90;99.90
55173;DHT22;41061;52.822;6.860;2022-07-15T02:48:08;12.90;99.90
55173;DHT22;41061;52.822;6.860;2022-07-15T02:50:35;12.90;99.90
55173;DHT22;41061;52.822;6.860;2022-07-15T02:53:02;12.80;99.90
55173;DHT22;41061;52.822;6.860;2022-07-15T02:55:28;12.80;99.90
55173;DHT22;41061;52.822;6.860;2022-07-15T02:57:54;12.80;99.90
55173;DHT22;41061;52.822;6.860;2022-07-15T03:00:19;12.70;99.90
55173;DHT22;41061;52.822;6.860;2022-07-15T03:02:47;12.60;99.90
55173;DHT22;41061;52.822;6.860;2022-07-15T03:05:13;12.60;99.90
55173;DHT22;41061;52.822;6.860;2022-07-15T03:07:40;12.60;99.90
55173;DHT22;41061;52.822;6.860;2022-07-15T03:10:08;12.50;99.90
55173;DHT22;41061;52.822;6.860;2022-07-15T03:12:34;12.40;99.90
55173;DHT22;41061;52.822;6.860;2022-07-15T03:15:00;12.40;99.90
55173;DHT22;41061;52.822;6.860;2022-07-15T03:17:27;12.30;99.90
55173;DHT22;41061;52.822;6.860;2022-07-15T03:19:53;12.30;99.90
55173;DHT22;41061;52.822;6.860;2022-07-15T03:22:22;12.20;99.90
55173;DHT22;41061;52.822;6.860;2022-07-15T03:24:48;12.10;99.90
55173;DHT22;41061;52.822;6.860;2022-07-15T03:27:14;12.00;99.90
55173;DHT22;41061;52.822;6.860;2022-07-15T03:29:41;12.00;99.90
55173;DHT22;41061;52.822;6.860;2022-07-15T03:32:07;11.90;99.90
55173;DHT22;41061;52.822;6.860;2022-07-15T03:34:33;11.90;99.90
55173;DHT22;41061;52.822;6.860;2022-07-15T03:36:59;11.80;99.90
55173;DHT22;41061;52.822;6.860;2022-07-15T03:39:24;11.80;99.90
55173;DHT22;41061;52.822;6.860;2022-07-15T03:41:50;11.80;99.90
55173;DHT22;41061;52.822;6.860;2022-07-15T03:44:16;11.70;99.90
55173;DHT22;41061;52.822;6.860;2022-07-15T03:46:43;11.70;99.90
55173;DHT22;41061;52.822;6.860;2022-07-15T03:49:12;11.60;99.90
55173;DHT22;41061;52.822;6.860;2022-07-15T03:51:37;11.60;99.90
55173;DHT22;41061;52.822;6.860;2022-07-15T03:54:04;11.50;99.90
55173;DHT22;41061;52.822;6.860;2022-07-15T03:56:31;11.50;99.90
55173;DHT22;41061;52.822;6.860;2022-07-15T03:58:57;11.50;99.90
55173;DHT22;41061;52.822;6.860;2022-07-15T04:01:23;11.50;99.90
55173;DHT22;41061;52.822;6.860;2022-07-15T04:03:49;11.50;99.90
55173;DHT22;41061;52.822;6.860;2022-07-15T04:06:16;11.50;99.90
55173;DHT22;41061;52.822;6.860;2022-07-15T04:08:42;11.50;99.90
55173;DHT22;41061;52.822;6.860;2022-07-15T04:11:08;11.50;99.90
55173;DHT22;41061;52.822;6.860;2022-07-15T04:13:34;11.50;99.90
55173;DHT22;41061;52.822;6.860;2022-07-15T04:15:59;11.60;99.90
55173;DHT22;41061;52.822;6.860;2022-07-15T04:18:25;11.60;99.90
55173;DHT22;41061;52.822;6.860;2022-07-15T04:20:51;11.70;99.90
55173;DHT22;41061;52.822;6.860;2022-07-15T04:23:17;11.70;99.90
55173;DHT22;41061;52.822;6.860;2022-07-15T04:25:43;11.80;99.90
55173;DHT22;41061;52.822;6.860;2022-07-15T04:28:09;11.90;99.90
55173;DHT22;41061;52.822;6.860;2022-07-15T04:30:34;11.90;99.90
55173;DHT22;41061;52.822;6.860;2022-07-15T04:33:01;12.00;99.90
55173;DHT22;41061;52.822;6.860;2022-07-15T04:35:26;12.10;99.90
55173;DHT22;41061;52.822;6.860;2022-07-15T04:37:52;12.20;99.90
55173;DHT22;41061;52.822;6.860;2022-07-15T04:40:18;12.20;99.90
55173;DHT22;41061;52.822;6.860;2022-07-15T04:42:44;12.20;99.90
55173;DHT22;41061;52.822;6.860;2022-07-15T04:45:10;12.30;99.90
55173;DHT22;41061;52.822;6.860;2022-07-15T04:47:36;12.30;99.90
55173;DHT22;41061;52.822;6.860;2022-07-15T04:50:02;12.30;99.90
55173;DHT22;41061;52.822;6.860;2022-07-15T04:52:47;12.30;99.90
55173;DHT22;41061;52.822;6.860;2022-07-15T04:55:13;12.30;99.90
55173;DHT22;41061;52.822;6.860;2022-07-15T04:57:40;12.30;99.90
55173;DHT22;41061;52.822;6.860;2022-07-15T05:00:07;12.30;99.90
55173;DHT22;41061;52.822;6.860;2022-07-15T05:02:34;12.30;99.90
55173;DHT22;41061;52.822;6.860;2022-07-15T05:05:00;12.30;99.90
55173;DHT22;41061;52.822;6.860;2022-07-15T05:07:26;12.40;99.90
55173;DHT22;41061;52.822;6.860;2022-07-15T05:09:52;12.40;99.90
55173;DHT22;41061;52.822;6.860;2022-07-15T05:12:17;12.50;99.90
55173;DHT22;41061;52.822;6.860;2022-07-15T05:14:43;12.60;99.90
55173;DHT22;41061;52.822;6.860;2022-07-15T05:17:09;12.70;99.90
55173;DHT22;41061;52.822;6.860;2022-07-15T05:19:35;12.70;99.90
55173;DHT22;41061;52.822;6.860;2022-07-15T05:22:01;12.80;99.90
55173;DHT22;41061;52.822;6.860;2022-07-15T05:24:27;12.90;99.90
55173;DHT22;41061;52.822;6.860;2022-07-15T05:26:53;13.00;99.90
55173;DHT22;41061;52.822;6.860;2022-07-15T05:29:18;13.00;99.90
55173;DHT22;41061;52.822;6.860;2022-07-15T05:31:50;13.10;99.90
55173;DHT22;41061;52.822;6.860;2022-07-15T05:34:16;13.20;99.90
55173;DHT22;41061;52.822;6.860;2022-07-15T05:36:42;13.30;99.90
55173;DHT22;41061;52.822;6.860;2022-07-15T05:39:11;13.30;99.90
55173;DHT22;41061;52.822;6.860;2022-07-15T05:41:36;13.30;99.90
55173;DHT22;41061;52.822;6.860;2022-07-15T05:44:02;13.40;99.90
55173;DHT22;41061;52.822;6.860;2022-07-15T05:46:28;13.50;99.90
55173;DHT22;41061;52.822;6.860;2022-07-15T05:48:54;13.50;99.90
55173;DHT22;41061;52.822;6.860;2022-07-15T05:51:20;13.50;99.90
55173;DHT22;41061;52.822;6.860;2022-07-15T05:53:45;13.60;99.90
55173;DHT22;41061;52.822;6.860;2022-07-15T05:56:11;13.70;99.90
55173;DHT22;41061;52.822;6.860;2022-07-15T05:58:37;13.70;99.90
55173;DHT22;41061;52.822;6.860;2022-07-15T06:01:03;13.80;99.90
55173;DHT22;41061;52.822;6.860;2022-07-15T06:03:29;13.90;99.90
55173;DHT22;41061;52.822;6.860;2022-07-15T06:05:55;13.90;99.90
55173;DHT22;41061;52.822;6.860;2022-07-15T06:08:21;14.00;99.90
55173;DHT22;41061;52.822;6.860;2022-07-15T06:10:47;14.00;99.90
55173;DHT22;41061;52.822;6.860;2022-07-15T06:13:13;14.10;99.90
55173;DHT22;41061;52.822;6.860;2022-07-15T06:15:40;14.20;99.90
55173;DHT22;41061;52.822;6.860;2022-07-15T06:18:06;14.30;99.90
55173;DHT22;41061;52.822;6.860;2022-07-15T06:20:31;14.50;99.90
55173;DHT22;41061;52.822;6.860;2022-07-15T06:22:57;14.50;99.90
55173;DHT22;41061;52.822;6.860;2022-07-15T06:25:23;14.60;99.90
55173;DHT22;41061;52.822;6.860;2022-07-15T06:27:48;14.50;99.90
55173;DHT22;41061;52.822;6.860;2022-07-15T06:30:14;14.70;99.90
55173;DHT22;41061;52.822;6.860;2022-07-15T06:32:40;14.80;99.90
55173;DHT22;41061;52.822;6.860;2022-07-15T06:35:06;15.00;99.90
55173;DHT22;41061;52.822;6.860;2022-07-15T06:37:32;15.10;99.90
55173;DHT22;41061;52.822;6.860;2022-07-15T06:39:58;15.30;99.90
55173;DHT22;41061;52.822;6.860;2022-07-15T06:42:24;15.60;99.90
55173;DHT22;41061;52.822;6.860;2022-07-15T06:44:50;15.70;99.90
55173;DHT22;41061;52.822;6.860;2022-07-15T06:47:16;15.90;99.90
55173;DHT22;41061;52.822;6.860;2022-07-15T06:49:41;16.00;99.90
55173;DHT22;41061;52.822;6.860;2022-07-15T06:52:07;16.10;99.90
55173;DHT22;41061;52.822;6.860;2022-07-15T06:54:33;16.40;99.90
55173;DHT22;41061;52.822;6.860;2022-07-15T06:56:59;16.60;99.90
55173;DHT22;41061;52.822;6.860;2022-07-15T06:59:26;16.70;99.90
55173;DHT22;41061;52.822;6.860;2022-07-15T07:01:52;16.80;99.90
55173;DHT22;41061;52.822;6.860;2022-07-15T07:04:18;16.80;99.90
55173;DHT22;41061;52.822;6.860;2022-07-15T07:06:44;16.80;99.90
55173;DHT22;41061;52.822;6.860;2022-07-15T07:09:11;16.90;99.90
55173;DHT22;41061;52.822;6.860;2022-07-15T07:11:37;16.90;99.90
55173;DHT22;41061;52.822;6.860;2022-07-15T07:14:02;17.00;99.90
55173;DHT22;41061;52.822;6.860;2022-07-15T07:16:28;17.00;99.90
55173;DHT22;41061;52.822;6.860;2022-07-15T07:18:54;17.00;99.90
55173;DHT22;41061;52.822;6.860;2022-07-15T07:21:20;17.00;99.90
55173;DHT22;41061;52.822;6.860;2022-07-15T07:23:46;17.10;99.90
55173;DHT22;41061;52.822;6.860;2022-07-15T07:26:13;17.20;99.90
55173;DHT22;41061;52.822;6.860;2022-07-15T07:28:39;17.30;99.90
55173;DHT22;41061;52.822;6.860;2022-07-15T07:31:10;17.30;99.90
55173;DHT22;41061;52.822;6.860;2022-07-15T07:33:37;17.30;99.90
55173;DHT22;41061;52.822;6.860;2022-07-15T07:36:03;17.50;99.90
55173;DHT22;41061;52.822;6.860;2022-07-15T07:38:31;17.60;99.90
55173;DHT22;41061;52.822;6.860;2022-07-15T07:40:57;17.60;99.90
55173;DHT22;41061;52.822;6.860;2022-07-15T07:43:22;17.80;99.90
55173;DHT22;41061;52.822;6.860;2022-07-15T07:45:49;18.00;99.90
55173;DHT22;41061;52.822;6.860;2022-07-15T07:48:16;18.10;99.90
55173;DHT22;41061;52.822;6.860;2022-07-15T07:50:45;18.20;99.90
55173;DHT22;41061;52.822;6.860;2022-07-15T07:53:10;18.40;99.90
55173;DHT22;41061;52.822;6.860;2022-07-15T07:55:37;18.50;99.90
55173;DHT22;41061;52.822;6.860;2022-07-15T07:58:03;18.60;99.90
55173;DHT22;41061;52.822;6.860;2022-07-15T08:00:29;18.80;99.90
55173;DHT22;41061;52.822;6.860;2022-07-15T08:02:57;19.10;99.90
55173;DHT22;41061;52.822;6.860;2022-07-15T08:05:23;19.10;99.90
55173;DHT22;41061;52.822;6.860;2022-07-15T08:07:49;19.00;99.90
55173;DHT22;41061;52.822;6.860;2022-07-15T08:10:17;18.90;99.90
55173;DHT22;41061;52.822;6.860;2022-07-15T08:12:43;19.00;99.90
55173;DHT22;41061;52.822;6.860;2022-07-15T08:15:10;19.10;99.90
55173;DHT22;41061;52.822;6.860;2022-07-15T08:17:39;19.30;99.90
55173;DHT22;41061;52.822;6.860;2022-07-15T08:20:07;19.40;99.90
55173;DHT22;41061;52.822;6.860;2022-07-15T08:22:36;19.40;99.90
55173;DHT22;41061;52.822;6.860;2022-07-15T08:25:02;19.40;99.90
55173;DHT22;41061;52.822;6.860;2022-07-15T08:27:28;19.40;99.90
55173;DHT22;41061;52.822;6.860;2022-07-15T08:29:55;19.50;99.90
55173;DHT22;41061;52.822;6.860;2022-07-15T08:32:21;19.70;99.90
55173;DHT22;41061;52.822;6.860;2022-07-15T08:34:47;19.90;99.90
55173;DHT22;41061;52.822;6.860;2022-07-15T08:37:13;20.00;99.90
55173;DHT22;41061;52.822;6.860;2022-07-15T08:39:39;20.20;99.90
55173;DHT22;41061;52.822;6.860;2022-07-15T08:42:05;20.50;99.90
55173;DHT22;41061;52.822;6.860;2022-07-15T08:44:31;20.50;99.90
55173;DHT22;41061;52.822;6.860;2022-07-15T08:47:04;20.40;99.90
55173;DHT22;41061;52.822;6.860;2022-07-15T08:49:32;20.30;99.90
55173;DHT22;41061;52.822;6.860;2022-07-15T08:51:59;20.10;99.90
55173;DHT22;41061;52.822;6.860;2022-07-15T08:54:26;19.90;99.90
55173;DHT22;41061;52.822;6.860;2022-07-15T08:56:52;19.70;99.90
55173;DHT22;41061;52.822;6.860;2022-07-15T08:59:18;19.60;99.90
55173;DHT22;41061;52.822;6.860;2022-07-15T09:01:46;19.80;99.90
55173;DHT22;41061;52.822;6.860;2022-07-15T09:04:12;19.80;99.90
55173;DHT22;41061;52.822;6.860;2022-07-15T09:06:44;19.90;99.90
55173;DHT22;41061;52.822;6.860;2022-07-15T09:09:23;20.20;99.90
55173;DHT22;41061;52.822;6.860;2022-07-15T09:12:07;20.60;99.90
55173;DHT22;41061;52.822;6.860;2022-07-15T09:14:35;20.60;99.90
55173;DHT22;41061;52.822;6.860;2022-07-15T09:20:06;20.40;99.90
55173;DHT22;41061;52.822;6.860;2022-07-15T09:22:50;20.40;99.90
55173;DHT22;41061;52.822;6.860;2022-07-15T09:25:16;20.20;99.90
55173;DHT22;41061;52.822;6.860;2022-07-15T09:27:43;20.20;99.90
55173;DHT22;41061;52.822;6.860;2022-07-15T09:30:31;20.30;99.90
55173;DHT22;41061;52.822;6.860;2022-07-15T09:33:22;20.30;99.90
55173;DHT22;41061;52.822;6.860;2022-07-15T09:36:23;20.30;99.90
55173;DHT22;41061;52.822;6.860;2022-07-15T09:39:01;20.10;99.90
55173;DHT22;41061;52.822;6.860;2022-07-15T09:41:41;20.00;99.90
55173;DHT22;41061;52.822;6.860;2022-07-15T09:46:46;19.80;99.90
55173;DHT22;41061;52.822;6.860;2022-07-15T09:49:16;19.80;99.90
55173;DHT22;41061;52.822;6.860;2022-07-15T09:54:22;19.70;99.90
55173;DHT22;41061;52.822;6.860;2022-07-15T09:56:49;19.60;99.90
55173;DHT22;41061;52.822;6.860;2022-07-15T09:59:16;19.70;99.90
55173;DHT22;41061;52.822;6.860;2022-07-15T10:01:43;19.80;99.90
55173;DHT22;41061;52.822;6.860;2022-07-15T10:04:10;19.80;99.90
55173;DHT22;41061;52.822;6.860;2022-07-15T10:06:37;19.80;99.90
55173;DHT22;41061;52.822;6.860;2022-07-15T10:09:05;19.70;99.90
55173;DHT22;41061;52.822;6.860;2022-07-15T10:11:36;19.70;99.90
55173;DHT22;41061;52.822;6.860;2022-07-15T10:14:29;19.60;99.90
55173;DHT22;41061;52.822;6.860;2022-07-15T10:20:02;19.30;99.90
55173;DHT22;41061;52.822;6.860;2022-07-15T10:22:59;19.30;99.90
55173;DHT22;41061;52.822;6.860;2022-07-15T10:25:58;19.30;99.90
55173;DHT22;41061;52.822;6.860;2022-07-15T10:28:33;19.40;99.90
55173;DHT22;41061;52.822;6.860;2022-07-15T10:31:17;19.40;99.90
55173;DHT22;41061;52.822;6.860;2022-07-15T10:39:16;19.90;99.90
55173;DHT22;41061;52.822;6.860;2022-07-15T10:41:51;20.00;99.90
55173;DHT22;41061;52.822;6.860;2022-07-15T10:44:18;20.00;99.90
55173;DHT22;41061;52.822;6.860;2022-07-15T10:46:44;20.20;99.90
55173;DHT22;41061;52.822;6.860;2022-07-15T10:54:02;20.50;99.90
55173;DHT22;41061;52.822;6.860;2022-07-15T10:59:14;20.90;99.90
55173;DHT22;41061;52.822;6.860;2022-07-15T11:01:42;21.00;99.90
55173;DHT22;41061;52.822;6.860;2022-07-15T11:04:17;20.90;99.90
55173;DHT22;41061;52.822;6.860;2022-07-15T11:15:19;20.90;99.90
55173;DHT22;41061;52.822;6.860;2022-07-15T11:17:47;20.90;99.90
55173;DHT22;41061;52.822;6.860;2022-07-15T11:20:18;21.00;99.90
55173;DHT22;41061;52.822;6.860;2022-07-15T11:22:50;21.10;99.90
55173;DHT22;41061;52.822;6.860;2022-07-15T11:25:24;21.20;99.90
55173;DHT22;41061;52.822;6.860;2022-07-15T11:30:24;21.40;99.90
55173;DHT22;41061;52.822;6.860;2022-07-15T11:32:55;21.50;99.90
55173;DHT22;41061;52.822;6.860;2022-07-15T11:35:21;21.50;99.90
55173;DHT22;41061;52.822;6.860;2022-07-15T11:37:47;21.70;99.90
55173;DHT22;41061;52.822;6.860;2022-07-15T11:40:16;21.70;99.90
55173;DHT22;41061;52.822;6.860;2022-07-15T11:43:04;21.80;99.90
55173;DHT22;41061;52.822;6.860;2022-07-15T11:45:48;22.10;99.90
55173;DHT22;41061;52.822;6.860;2022-07-15T11:48:14;22.50;99.90
55173;DHT22;41061;52.822;6.860;2022-07-15T11:50:54;22.80;99.90
55173;DHT22;41061;52.822;6.860;2022-07-15T11:53:20;23.00;99.90
55173;DHT22;41061;52.822;6.860;2022-07-15T11:55:54;22.70;99.90
55173;DHT22;41061;52.822;6.860;2022-07-15T11:58:34;22.50;99.90
55173;DHT22;41061;52.822;6.860;2022-07-15T12:01:03;22.50;99.90
55173;DHT22;41061;52.822;6.860;2022-07-15T12:03:37;22.60;99.90
55173;DHT22;41061;52.822;6.860;2022-07-15T12:08:44;22.50;99.90
55173;DHT22;41061;52.822;6.860;2022-07-15T12:11:21;22.30;99.90
55173;DHT22;41061;52.822;6.860;2022-07-15T12:14:08;22.10;99.90
55173;DHT22;41061;52.822;6.860;2022-07-15T12:16:46;22.00;99.90
55173;DHT22;41061;52.822;6.860;2022-07-15T12:19:16;22.10;99.90
55173;DHT22;41061;52.822;6.860;2022-07-15T12:21:44;22.20;99.90
55173;DHT22;41061;52.822;6.860;2022-07-15T12:24:15;22.20;99.90
55173;DHT22;41061;52.822;6.860;2022-07-15T12:26:55;22.20;99.90
55173;DHT22;41061;52.822;6.860;2022-07-15T12:29:29;22.10;99.90
55173;DHT22;41061;52.822;6.860;2022-07-15T12:32:04;22.10;99.90
55173;DHT22;41061;52.822;6.860;2022-07-15T12:37:46;22.10;99.90
55173;DHT22;41061;52.822;6.860;2022-07-15T12:40:09;22.10;99.90
55173;DHT22;41061;52.822;6.860;2022-07-15T12:42:46;22.00;99.90
55173;DHT22;41061;52.822;6.860;2022-07-15T12:45:35;22.10;99.90
55173;DHT22;41061;52.822;6.860;2022-07-15T12:50:32;22.10;99.90
55173;DHT22;41061;52.822;6.860;2022-07-15T12:52:59;22.20;99.90
55173;DHT22;41061;52.822;6.860;2022-07-15T12:55:31;22.20;99.90
55173;DHT22;41061;52.822;6.860;2022-07-15T12:58:13;22.30;99.90
55173;DHT22;41061;52.822;6.860;2022-07-15T13:00:41;22.50;99.90
55173;DHT22;41061;52.822;6.860;2022-07-15T13:03:15;22.40;99.90
55173;DHT22;41061;52.822;6.860;2022-07-15T13:05:50;22.50;99.90
55173;DHT22;41061;52.822;6.860;2022-07-15T13:08:53;22.50;99.90
55173;DHT22;41061;52.822;6.860;2022-07-15T13:11:12;22.50;99.90
55173;DHT22;41061;52.822;6.860;2022-07-15T13:13:39;22.40;99.90
55173;DHT22;41061;52.822;6.860;2022-07-15T13:16:06;22.30;99.90
55173;DHT22;41061;52.822;6.860;2022-07-15T13:18:32;22.20;99.90
55173;DHT22;41061;52.822;6.860;2022-07-15T13:20:59;22.20;99.90
55173;DHT22;41061;52.822;6.860;2022-07-15T13:23:25;22.20;99.90
55173;DHT22;41061;52.822;6.860;2022-07-15T13:25:52;22.10;99.90
55173;DHT22;41061;52.822;6.860;2022-07-15T13:28:20;22.00;99.90
55173;DHT22;41061;52.822;6.860;2022-07-15T13:30:46;21.90;99.90
55173;DHT22;41061;52.822;6.860;2022-07-15T13:33:13;21.90;99.90
55173;DHT22;41061;52.822;6.860;2022-07-15T13:35:39;21.90;99.90
55173;DHT22;41061;52.822;6.860;2022-07-15T13:38:05;21.90;99.90
55173;DHT22;41061;52.822;6.860;2022-07-15T13:40:30;21.90;99.90
55173;DHT22;41061;52.822;6.860;2022-07-15T13:42:56;21.90;99.90
55173;DHT22;41061;52.822;6.860;2022-07-15T13:45:22;21.90;99.90
55173;DHT22;41061;52.822;6.860;2022-07-15T13:47:48;22.00;99.90
55173;DHT22;41061;52.822;6.860;2022-07-15T13:50:14;22.00;99.90
55173;DHT22;41061;52.822;6.860;2022-07-15T13:52:59;22.00;99.90
55173;DHT22;41061;52.822;6.860;2022-07-15T13:55:26;22.00;99.90
55173;DHT22;41061;52.822;6.860;2022-07-15T13:57:52;22.10;99.90
55173;DHT22;41061;52.822;6.860;2022-07-15T14:00:20;22.20;99.90
55173;DHT22;41061;52.822;6.860;2022-07-15T14:02:52;22.20;99.90
55173;DHT22;41061;52.822;6.860;2022-07-15T14:05:18;22.20;99.90
55173;DHT22;41061;52.822;6.860;2022-07-15T14:07:44;22.00;99.90
55173;DHT22;41061;52.822;6.860;2022-07-15T14:10:10;22.00;99.90
55173;DHT22;41061;52.822;6.860;2022-07-15T14:12:36;21.90;99.90
55173;DHT22;41061;52.822;6.860;2022-07-15T14:15:03;21.80;99.90
55173;DHT22;41061;52.822;6.860;2022-07-15T14:17:29;21.80;99.90
55173;DHT22;41061;52.822;6.860;2022-07-15T14:19:55;21.70;99.90
55173;DHT22;41061;52.822;6.860;2022-07-15T14:22:22;21.70;99.90
55173;DHT22;41061;52.822;6.860;2022-07-15T14:24:48;21.70;99.90
55173;DHT22;41061;52.822;6.860;2022-07-15T14:27:13;21.70;99.90
55173;DHT22;41061;52.822;6.860;2022-07-15T14:29:40;21.70;99.90
55173;DHT22;41061;52.822;6.860;2022-07-15T14:32:06;21.60;99.90
55173;DHT22;41061;52.822;6.860;2022-07-15T14:34:31;21.60;99.90
55173;DHT22;41061;52.822;6.860;2022-07-15T14:36:57;21.60;99.90
55173;DHT22;41061;52.822;6.860;2022-07-15T14:39:23;21.60;99.90
55173;DHT22;41061;52.822;6.860;2022-07-15T14:41:50;21.60;99.90
55173;DHT22;41061;52.822;6.860;2022-07-15T14:44:15;21.60;99.90
55173;DHT22;41061;52.822;6.860;2022-07-15T14:46:41;21.70;99.90
55173;DHT22;41061;52.822;6.860;2022-07-15T14:49:07;21.90;99.90
55173;DHT22;41061;52.822;6.860;2022-07-15T14:51:33;22.00;99.90
55173;DHT22;41061;52.822;6.860;2022-07-15T14:53:58;22.00;99.90
55173;DHT22;41061;52.822;6.860;2022-07-15T14:56:24;21.90;99.90
55173;DHT22;41061;52.822;6.860;2022-07-15T14:58:49;21.80;99.90
55173;DHT22;41061;52.822;6.860;2022-07-15T15:01:15;21.80;99.90
55173;DHT22;41061;52.822;6.860;2022-07-15T15:03:41;21.80;99.90
55173;DHT22;41061;52.822;6.860;2022-07-15T15:06:07;21.90;99.90
55173;DHT22;41061;52.822;6.860;2022-07-15T15:08:32;22.00;99.90
55173;DHT22;41061;52.822;6.860;2022-07-15T15:10:58;22.20;99.90
55173;DHT22;41061;52.822;6.860;2022-07-15T15:13:23;22.50;99.90
55173;DHT22;41061;52.822;6.860;2022-07-15T15:15:49;22.70;99.90
55173;DHT22;41061;52.822;6.860;2022-07-15T15:18:15;22.90;99.90
55173;DHT22;41061;52.822;6.860;2022-07-15T15:20:41;23.00;99.90
55173;DHT22;41061;52.822;6.860;2022-07-15T15:23:06;23.10;99.90
55173;DHT22;41061;52.822;6.860;2022-07-15T15:25:32;23.10;99.90
55173;DHT22;41061;52.822;6.860;2022-07-15T15:28:16;23.10;99.90
55173;DHT22;41061;52.822;6.860;2022-07-15T15:30:42;23.00;99.90
55173;DHT22;41061;52.822;6.860;2022-07-15T15:33:08;22.90;99.90
55173;DHT22;41061;52.822;6.860;2022-07-15T15:35:34;22.70;99.90
55173;DHT22;41061;52.822;6.860;2022-07-15T15:37:59;22.60;99.90
55173;DHT22;41061;52.822;6.860;2022-07-15T15:40:25;22.50;99.90
55173;DHT22;41061;52.822;6.860;2022-07-15T15:42:50;22.50;99.90
55173;DHT22;41061;52.822;6.860;2022-07-15T15:45:16;22.60;99.90
55173;DHT22;41061;52.822;6.860;2022-07-15T15:47:42;22.70;99.90
55173;DHT22;41061;52.822;6.860;2022-07-15T15:50:08;22.70;99.90
55173;DHT22;41061;52.822;6.860;2022-07-15T15:52:34;22.60;99.90
55173;DHT22;41061;52.822;6.860;2022-07-15T15:54:59;22.50;99.90
55173;DHT22;41061;52.822;6.860;2022-07-15T15:57:25;22.40;99.90
55173;DHT22;41061;52.822;6.860;2022-07-15T15:59:51;22.30;99.90
55173;DHT22;41061;52.822;6.860;2022-07-15T16:02:16;22.20;99.90
55173;DHT22;41061;52.822;6.860;2022-07-15T16:04:42;22.30;99.90
55173;DHT22;41061;52.822;6.860;2022-07-15T16:07:08;22.30;99.90
55173;DHT22;41061;52.822;6.860;2022-07-15T16:09:34;22.30;99.90
55173;DHT22;41061;52.822;6.860;2022-07-15T16:12:00;22.30;99.90
55173;DHT22;41061;52.822;6.860;2022-07-15T16:14:26;22.30;99.90
55173;DHT22;41061;52.822;6.860;2022-07-15T16:16:52;22.20;99.90
55173;DHT22;41061;52.822;6.860;2022-07-15T16:19:18;22.30;99.90